createdAt,value
2019-03-19T00:02:41.324Z,6.13
2019-03-19T00:07:47.254Z,6.14
2019-03-19T00:12:54.332Z,6.16
2019-03-19T00:18:00.270Z,6.17
2019-03-19T00:23:07.394Z,6.10
2019-03-19T00:28:14.370Z,6.08
2019-03-19T00:33:21.359Z,6.09
2019-03-19T00:38:28.346Z,6.04
2019-03-19T00:43:34.242Z,6.02
2019-03-19T00:48:41.194Z,5.99
2019-03-19T00:53:48.197Z,5.78
2019-03-19T00:58:54.256Z,5.78
2019-03-19T01:04:01.254Z,5.70
2019-03-19T01:09:09.023Z,5.69
2019-03-19T01:14:15.113Z,5.68
2019-03-19T01:19:22.055Z,5.64
2019-03-19T01:24:28.235Z,5.56
2019-03-19T01:29:35.201Z,5.44
2019-03-19T01:34:42.340Z,5.17
2019-03-19T01:39:49.376Z,5.17
2019-03-19T01:44:56.404Z,5.10
2019-03-19T01:50:03.372Z,5.16
2019-03-19T01:55:10.340Z,5.26
2019-03-19T02:00:17.430Z,5.30
2019-03-19T02:05:24.413Z,5.35
2019-03-19T02:10:31.461Z,5.40
2019-03-19T02:15:38.542Z,5.48
2019-03-19T02:20:45.449Z,5.47
2019-03-19T02:25:52.607Z,5.52
2019-03-19T02:30:59.551Z,5.52
2019-03-19T02:36:06.609Z,5.58
2019-03-19T02:41:13.632Z,5.62
2019-03-19T02:46:20.690Z,5.66
2019-03-19T02:51:27.673Z,5.67
2019-03-19T02:56:34.537Z,5.70
2019-03-19T03:01:41.543Z,5.71
2019-03-19T03:06:48.534Z,5.74
2019-03-19T03:11:55.532Z,5.73
2019-03-19T03:17:02.565Z,5.71
2019-03-19T03:22:09.511Z,5.65
2019-03-19T03:27:16.423Z,5.65
2019-03-19T03:34:24.426Z,5.49
2019-03-19T03:39:31.561Z,5.49
2019-03-19T03:44:38.418Z,5.46
2019-03-19T03:49:45.414Z,5.46
2019-03-19T03:54:52.397Z,5.50
2019-03-19T03:59:59.411Z,5.51
2019-03-19T04:05:06.897Z,5.55
2019-03-19T04:10:14.006Z,5.53
2019-03-19T04:15:21.306Z,5.56
2019-03-19T04:20:28.395Z,5.58
2019-03-19T04:25:35.428Z,5.58
2019-03-19T04:30:42.417Z,5.56
2019-03-19T04:35:49.411Z,5.54
2019-03-19T04:40:56.422Z,5.52
2019-03-19T04:46:03.431Z,5.48
2019-03-19T04:51:10.390Z,5.44
2019-03-19T04:56:17.372Z,5.44
2019-03-19T05:01:24.396Z,5.37
2019-03-19T05:06:31.379Z,5.35
2019-03-19T05:11:38.396Z,5.36
2019-03-19T05:16:45.477Z,5.37
2019-03-19T05:21:52.397Z,5.39
2019-03-19T05:26:58.277Z,5.43
2019-03-19T05:32:05.323Z,5.40
2019-03-19T05:37:12.356Z,5.42
2019-03-19T05:42:19.365Z,5.46
2019-03-19T05:47:36.571Z,5.49
2019-03-19T05:52:34.162Z,5.57
2019-03-19T05:57:49.319Z,5.67
2019-03-19T06:02:48.562Z,5.67
2019-03-19T06:07:55.403Z,5.72
2019-03-19T06:13:02.488Z,5.72
2019-03-19T06:18:09.421Z,5.81
2019-03-19T06:23:16.375Z,5.81
2019-03-19T06:28:23.373Z,5.87
2019-03-19T06:33:30.338Z,6.01
2019-03-19T06:38:37.383Z,6.10
2019-03-19T06:43:44.331Z,6.27
2019-03-19T06:48:51.379Z,6.44
2019-03-19T06:53:58.371Z,6.59
2019-03-19T06:59:05.354Z,6.60
2019-03-19T07:04:12.482Z,6.61
2019-03-19T07:09:19.453Z,6.67
2019-03-19T07:14:26.444Z,6.75
2019-03-19T07:19:33.318Z,6.59
2019-03-19T07:24:40.343Z,6.54
2019-03-19T07:29:47.362Z,6.69
2019-03-19T07:34:54.436Z,6.69
2019-03-19T07:40:01.430Z,6.67
2019-03-19T07:45:11.455Z,6.77
2019-03-19T07:50:18.924Z,6.93
2019-03-19T07:55:26.245Z,7.03
2019-03-19T08:00:32.244Z,7.07
2019-03-19T08:05:39.397Z,7.27
2019-03-19T08:10:46.431Z,7.27
2019-03-19T08:15:53.445Z,7.31
2019-03-19T08:21:00.442Z,7.30
2019-03-19T08:26:06.300Z,7.44
2019-03-19T08:31:13.394Z,7.48
2019-03-19T08:36:19.271Z,7.54
2019-03-19T08:41:26.358Z,7.65
2019-03-19T08:46:33.545Z,7.78
2019-03-19T08:51:39.487Z,7.71
2019-03-19T08:56:46.445Z,7.71
2019-03-19T09:01:53.497Z,7.73
2019-03-19T09:06:59.306Z,8.02
2019-03-19T09:12:06.419Z,8.33
2019-03-19T09:17:13.437Z,8.33
2019-03-19T09:22:19.977Z,8.48
2019-03-19T09:27:27.379Z,8.80
2019-03-19T09:32:34.560Z,9.16
2019-03-19T09:37:44.922Z,9.58
2019-03-19T09:42:51.804Z,9.79
2019-03-19T09:47:59.118Z,9.79
2019-03-19T09:53:05.272Z,10.01
2019-03-19T09:58:11.286Z,9.71
2019-03-19T10:03:18.446Z,9.45
2019-03-19T10:08:25.461Z,9.46
2019-03-19T10:13:32.426Z,9.45
2019-03-19T10:18:40.324Z,9.27
2019-03-19T10:23:47.428Z,9.64
2019-03-19T10:28:55.030Z,9.64
2019-03-19T10:34:02.231Z,9.60
2019-03-19T10:39:10.516Z,9.37
2019-03-19T10:44:32.553Z,9.47
2019-03-19T10:49:41.025Z,9.82
2019-03-19T10:54:48.265Z,9.82
2019-03-19T11:00:04.925Z,9.96
2019-03-19T11:05:13.459Z,10.74
2019-03-19T11:12:36.751Z,10.98
2019-03-19T11:17:42.662Z,11.38
2019-03-19T11:22:50.060Z,11.22
2019-03-19T11:27:56.251Z,11.77
2019-03-19T11:33:02.256Z,12.36
2019-03-19T11:38:09.438Z,12.88
2019-03-19T12:00:30.012Z,14.80
2019-03-19T12:05:38.459Z,15.33
2019-03-19T12:10:45.447Z,14.56
2019-03-19T12:15:52.613Z,13.30
2019-03-19T12:21:00.260Z,11.34
2019-03-19T12:26:08.432Z,11.34
2019-03-19T12:31:15.581Z,10.99
2019-03-19T12:36:21.381Z,10.80
2019-03-19T12:41:27.595Z,10.80
2019-03-19T12:46:34.451Z,10.92
2019-03-19T12:51:41.436Z,11.01
2019-03-19T12:56:48.522Z,11.71
2019-03-19T13:01:55.574Z,12.41
2019-03-19T13:07:02.505Z,12.76
2019-03-19T13:12:09.474Z,12.76
2019-03-19T13:17:16.659Z,12.58
2019-03-19T13:22:23.615Z,12.73
2019-03-19T13:27:30.505Z,12.95
2019-03-19T13:32:37.463Z,12.95
2019-03-19T13:37:44.515Z,12.56
2019-03-19T13:42:51.587Z,11.90
2019-03-19T13:47:58.445Z,11.13
2019-03-19T13:53:05.559Z,11.13
2019-03-19T13:58:12.435Z,11.00
2019-03-19T14:03:19.515Z,10.99
2019-03-19T14:08:26.571Z,10.87
2019-03-19T14:13:33.488Z,10.59
2019-03-19T14:18:40.550Z,10.49
2019-03-19T14:23:47.444Z,11.02
2019-03-19T14:28:54.747Z,11.16
2019-03-19T14:34:02.777Z,11.16
2019-03-19T14:39:11.705Z,11.24
2019-03-19T14:44:18.566Z,11.12
2019-03-19T14:49:25.444Z,11.30
2019-03-19T14:54:32.565Z,11.30
2019-03-19T14:59:39.438Z,10.78
2019-03-19T15:04:46.473Z,10.78
2019-03-19T15:09:53.439Z,10.83
2019-03-19T15:15:00.562Z,10.72
2019-03-19T15:20:12.079Z,11.76
2019-03-19T15:25:19.764Z,12.83
2019-03-19T15:30:26.574Z,13.22
2019-03-19T15:35:33.507Z,13.43
2019-03-19T15:40:40.446Z,13.43
2019-03-19T15:45:47.544Z,12.46
2019-03-19T15:50:54.502Z,11.58
2019-03-19T15:56:01.463Z,11.00
2019-03-19T16:01:08.452Z,10.80
2019-03-19T16:06:15.710Z,10.54
2019-03-19T16:11:22.565Z,10.36
2019-03-19T16:16:28.299Z,10.19
2019-03-19T16:21:35.429Z,9.80
2019-03-19T16:26:42.461Z,9.80
2019-03-19T16:31:51.206Z,9.65
2019-03-19T16:36:58.432Z,9.54
2019-03-19T16:42:05.544Z,9.54
2019-03-19T16:47:12.556Z,9.90
2019-03-19T16:52:19.428Z,9.83
2019-03-19T16:57:26.572Z,9.83
2019-03-19T17:02:33.480Z,9.42
2019-03-19T17:07:40.932Z,9.42
2019-03-19T17:12:51.460Z,9.23
2019-03-19T17:17:58.611Z,9.05
2019-03-19T17:23:05.615Z,8.68
2019-03-19T17:28:22.063Z,8.52
2019-03-19T17:33:21.591Z,8.52
2019-03-19T17:38:28.431Z,8.34
2019-03-19T17:43:35.531Z,8.34
2019-03-19T17:48:42.443Z,8.14
2019-03-19T17:53:49.550Z,8.14
2019-03-19T17:58:56.572Z,8.02
2019-03-19T18:04:03.542Z,8.02
2019-03-19T18:09:10.586Z,7.93
2019-03-19T18:14:17.448Z,7.84
2019-03-19T18:19:25.276Z,7.72
2019-03-19T18:24:32.426Z,7.62
2019-03-19T18:29:39.575Z,7.52
2019-03-19T18:34:46.576Z,7.30
2019-03-19T18:39:53.460Z,7.22
2019-03-19T18:45:00.458Z,7.22
2019-03-19T18:50:11.565Z,7.14
2019-03-19T18:55:18.576Z,7.06
2019-03-19T19:00:25.571Z,6.85
2019-03-19T19:05:32.577Z,6.70
2019-03-19T19:10:39.565Z,6.58
2019-03-19T19:15:46.437Z,6.58
2019-03-19T19:20:53.431Z,6.45
2019-03-19T19:26:00.409Z,6.39
2019-03-19T19:31:07.337Z,6.31
2019-03-19T19:36:14.448Z,6.25
2019-03-19T19:41:21.705Z,6.22
2019-03-19T19:46:28.564Z,6.06
2019-03-19T19:51:35.564Z,6.01
2019-03-19T19:56:42.376Z,6.01
2019-03-19T20:01:49.349Z,5.91
2019-03-19T20:06:56.348Z,5.82
2019-03-19T20:12:03.310Z,5.69
2019-03-19T20:17:10.391Z,5.60
2019-03-19T20:22:17.317Z,5.55
2019-03-19T20:27:24.459Z,5.47
2019-03-19T20:32:31.572Z,5.37
2019-03-19T20:37:39.558Z,5.14
2019-03-19T20:42:46.703Z,5.14
2019-03-19T20:47:53.565Z,4.96
2019-03-19T20:53:00.438Z,4.86
2019-03-19T20:58:08.856Z,4.86
2019-03-19T21:03:16.669Z,4.78
2019-03-19T21:08:24.038Z,4.73
2019-03-19T21:13:31.600Z,4.64
2019-03-19T21:18:38.473Z,4.57
2019-03-19T21:23:45.645Z,4.42
2019-03-19T21:28:52.599Z,4.42
2019-03-19T21:34:00.411Z,4.32
2019-03-19T21:39:09.761Z,4.27
2019-03-19T21:44:17.075Z,4.20
2019-03-19T21:49:24.577Z,4.03
2019-03-19T21:54:31.522Z,4.07
2019-03-19T21:59:38.418Z,4.05
2019-03-19T22:04:45.326Z,4.05
2019-03-19T22:09:51.233Z,4.02
2019-03-19T22:14:58.239Z,3.98
2019-03-19T22:20:05.397Z,3.91
2019-03-19T22:25:13.967Z,3.83
2019-03-19T22:30:20.860Z,3.76
2019-03-19T22:35:27.824Z,3.70
2019-03-19T22:40:34.674Z,3.63
2019-03-19T22:45:41.406Z,3.59
2019-03-19T22:50:48.342Z,3.57
2019-03-19T22:55:55.322Z,3.51
2019-03-19T23:01:02.485Z,3.46
2019-03-19T23:06:11.330Z,3.40
2019-03-19T23:11:18.314Z,3.32
2019-03-19T23:16:26.968Z,3.26
2019-03-19T23:21:32.863Z,3.24
2019-03-19T23:26:39.686Z,3.21
2019-03-19T23:31:46.427Z,3.21
2019-03-19T23:36:53.369Z,3.21
2019-03-19T23:42:01.498Z,3.19
2019-03-19T23:47:08.353Z,3.16
2019-03-19T23:53:29.422Z,3.08
2019-03-19T23:58:36.382Z,3.08
